createdAt,value
2022-09-15T00:02:25.027Z,16.00
2022-09-15T00:04:51.956Z,15.90
2022-09-15T00:07:18.806Z,15.90
2022-09-15T00:09:45.661Z,15.90
2022-09-15T00:12:12.537Z,15.80
2022-09-15T00:14:39.376Z,15.80
2022-09-15T00:17:06.307Z,15.70
2022-09-15T00:19:33.323Z,15.70
2022-09-15T00:22:02.919Z,15.60
2022-09-15T00:24:29.754Z,15.60
2022-09-15T00:26:56.933Z,15.60
2022-09-15T00:29:24.242Z,15.60
2022-09-15T00:31:51.076Z,15.60
2022-09-15T00:34:17.995Z,15.50
2022-09-15T00:36:44.898Z,15.50
2022-09-15T00:39:12.336Z,15.50
2022-09-15T00:41:40.246Z,15.50
2022-09-15T00:44:16.280Z,15.50
2022-09-15T00:46:54.668Z,15.50
2022-09-15T00:49:35.041Z,15.40
2022-09-15T00:52:09.406Z,15.40
2022-09-15T00:54:42.410Z,15.40
2022-09-15T00:57:16.097Z,15.40
2022-09-15T00:59:43.126Z,15.40
2022-09-15T01:02:16.654Z,15.40
2022-09-15T01:04:43.497Z,15.40
2022-09-15T01:07:12.520Z,15.40
2022-09-15T01:09:54.425Z,15.40
2022-09-15T01:12:21.398Z,15.40
2022-09-15T01:14:48.207Z,15.40
2022-09-15T01:17:30.056Z,15.40
2022-09-15T01:19:56.868Z,15.40
2022-09-15T01:22:33.980Z,15.30
2022-09-15T01:25:10.578Z,15.40
2022-09-15T01:28:15.586Z,15.30
2022-09-15T01:30:56.564Z,15.20
2022-09-15T01:33:37.875Z,15.20
2022-09-15T01:36:14.611Z,15.10
2022-09-15T01:39:03.270Z,15.10
2022-09-15T01:41:43.467Z,15.10
2022-09-15T01:44:17.050Z,15.00
2022-09-15T01:46:47.200Z,14.90
2022-09-15T01:49:18.710Z,14.90
2022-09-15T01:51:45.594Z,14.80
2022-09-15T01:54:12.436Z,14.80
2022-09-15T01:56:39.367Z,14.80
2022-09-15T01:59:06.188Z,14.70
2022-09-15T02:01:54.354Z,14.70
2022-09-15T02:04:40.024Z,14.70
2022-09-15T02:07:11.937Z,14.70
2022-09-15T02:10:14.023Z,14.60
2022-09-15T02:12:50.758Z,14.60
2022-09-15T02:15:29.277Z,14.50
2022-09-15T02:17:58.107Z,14.50
2022-09-15T02:20:39.114Z,14.40
2022-09-15T02:23:14.021Z,14.50
2022-09-15T02:25:44.153Z,14.40
2022-09-15T02:28:11.205Z,14.40
2022-09-15T02:30:41.254Z,14.40
2022-09-15T02:33:10.325Z,14.30
2022-09-15T02:35:37.308Z,14.30
2022-09-15T02:38:06.250Z,14.30
2022-09-15T02:40:33.197Z,14.20
2022-09-15T02:43:01.872Z,14.20
2022-09-15T02:45:30.262Z,14.20
2022-09-15T02:47:58.021Z,14.20
2022-09-15T02:50:27.655Z,14.20
2022-09-15T02:52:55.587Z,14.20
2022-09-15T02:55:22.736Z,14.30
2022-09-15T02:57:49.529Z,14.20
2022-09-15T03:00:17.438Z,14.20
2022-09-15T03:02:46.177Z,14.20
2022-09-15T03:05:14.070Z,14.20
2022-09-15T03:07:41.004Z,14.20
2022-09-15T03:10:08.739Z,14.20
2022-09-15T03:12:39.870Z,14.20
2022-09-15T03:15:08.171Z,14.20
2022-09-15T03:17:36.376Z,14.20
2022-09-15T03:20:07.670Z,14.20
2022-09-15T03:22:34.828Z,14.20
2022-09-15T03:25:01.734Z,14.20
2022-09-15T03:27:28.597Z,14.10
2022-09-15T03:29:58.254Z,14.10
2022-09-15T03:32:25.123Z,14.00
2022-09-15T03:34:55.250Z,14.00
2022-09-15T03:37:25.169Z,14.00
2022-09-15T03:39:52.085Z,14.00
2022-09-15T03:42:19.717Z,14.00
2022-09-15T03:44:46.566Z,13.90
2022-09-15T03:47:13.406Z,13.90
2022-09-15T03:49:40.210Z,14.00
2022-09-15T03:52:07.070Z,14.00
2022-09-15T03:54:35.582Z,14.00
2022-09-15T03:57:04.038Z,14.00
2022-09-15T03:59:30.899Z,14.00
2022-09-15T04:01:57.800Z,14.00
2022-09-15T04:04:24.601Z,14.00
2022-09-15T04:06:52.008Z,13.90
2022-09-15T04:09:20.391Z,13.90
2022-09-15T04:11:47.955Z,13.90
2022-09-15T04:14:14.935Z,13.90
2022-09-15T04:16:41.812Z,13.90
2022-09-15T04:19:08.707Z,13.90
2022-09-15T04:21:35.611Z,13.90
2022-09-15T04:24:04.820Z,13.90
2022-09-15T04:26:33.673Z,13.90
2022-09-15T04:29:04.312Z,13.90
2022-09-15T04:31:32.119Z,13.90
2022-09-15T04:33:59.507Z,13.80
2022-09-15T04:36:27.538Z,13.80
2022-09-15T04:38:55.302Z,13.80
2022-09-15T04:41:22.184Z,13.80
2022-09-15T04:43:49.165Z,13.80
2022-09-15T04:46:16.845Z,13.80
2022-09-15T04:48:45.550Z,13.80
2022-09-15T04:51:15.284Z,13.80
2022-09-15T04:53:42.356Z,13.80
2022-09-15T04:56:10.989Z,13.80
2022-09-15T04:58:42.146Z,13.80
2022-09-15T05:01:20.311Z,13.80
2022-09-15T05:03:47.245Z,13.80
2022-09-15T05:06:15.826Z,13.80
2022-09-15T05:08:42.701Z,13.80
2022-09-15T05:11:12.869Z,13.80
2022-09-15T05:13:40.267Z,13.80
2022-09-15T05:16:17.480Z,13.80
2022-09-15T05:18:45.347Z,13.80
2022-09-15T05:21:13.386Z,13.80
2022-09-15T05:23:40.340Z,13.90
2022-09-15T05:26:14.835Z,13.90
2022-09-15T05:28:41.759Z,13.80
2022-09-15T05:31:19.217Z,13.90
2022-09-15T05:33:46.832Z,13.90
2022-09-15T05:36:15.172Z,13.90
2022-09-15T05:38:42.510Z,13.90
2022-09-15T05:41:17.712Z,13.90
2022-09-15T05:43:48.002Z,13.80
2022-09-15T05:46:15.371Z,13.90
2022-09-15T05:48:42.308Z,13.90
2022-09-15T05:51:09.266Z,13.90
2022-09-15T05:53:36.441Z,13.90
2022-09-15T05:56:05.857Z,13.90
2022-09-15T05:58:32.890Z,13.90
2022-09-15T06:01:08.009Z,13.90
2022-09-15T06:03:35.490Z,13.90
2022-09-15T06:06:02.959Z,13.90
2022-09-15T06:08:37.301Z,13.90
2022-09-15T06:11:15.670Z,13.90
2022-09-15T06:13:42.672Z,13.90
2022-09-15T06:16:11.218Z,14.00
2022-09-15T06:18:38.671Z,14.00
2022-09-15T06:21:13.162Z,14.00
2022-09-15T06:23:40.249Z,14.10
2022-09-15T06:26:12.307Z,14.10
2022-09-15T06:28:39.709Z,14.10
2022-09-15T06:31:10.473Z,14.20
2022-09-15T06:33:37.439Z,14.20
2022-09-15T06:36:04.649Z,14.30
2022-09-15T06:38:31.481Z,14.30
2022-09-15T06:40:58.777Z,14.40
2022-09-15T06:43:25.976Z,14.40
2022-09-15T06:45:52.907Z,14.50
2022-09-15T06:48:24.776Z,14.50
2022-09-15T06:50:56.041Z,14.50
2022-09-15T06:53:22.974Z,14.60
2022-09-15T06:55:50.078Z,14.60
2022-09-15T06:58:16.925Z,14.70
2022-09-15T07:00:43.740Z,14.70
2022-09-15T07:03:10.783Z,14.80
2022-09-15T07:05:37.855Z,14.80
2022-09-15T07:08:04.731Z,14.80
2022-09-15T07:10:31.674Z,14.90
2022-09-15T07:13:01.355Z,14.90
2022-09-15T07:15:28.272Z,15.00
2022-09-15T07:17:55.138Z,15.00
2022-09-15T07:20:22.905Z,15.00
2022-09-15T07:22:49.952Z,15.00
2022-09-15T07:25:16.992Z,15.00
2022-09-15T07:27:43.826Z,15.00
2022-09-15T07:30:11.834Z,15.00
2022-09-15T07:32:38.687Z,15.00
2022-09-15T07:35:06.238Z,15.10
2022-09-15T07:37:33.352Z,15.20
2022-09-15T07:40:00.416Z,15.30
2022-09-15T07:42:29.306Z,15.40
2022-09-15T07:44:58.971Z,15.60
2022-09-15T07:47:25.831Z,15.80
2022-09-15T07:49:53.073Z,15.80
2022-09-15T07:52:19.995Z,16.00
2022-09-15T07:54:46.879Z,16.00
2022-09-15T07:57:13.722Z,16.10
2022-09-15T07:59:41.346Z,16.10
2022-09-15T08:02:15.742Z,16.10
2022-09-15T08:04:42.572Z,16.20
2022-09-15T08:07:09.419Z,16.20
2022-09-15T08:09:37.568Z,16.30
2022-09-15T08:12:04.941Z,16.30
2022-09-15T08:14:32.887Z,16.30
2022-09-15T08:17:08.151Z,16.40
2022-09-15T08:19:37.951Z,16.40
2022-09-15T08:22:05.127Z,16.40
2022-09-15T08:24:31.957Z,16.30
2022-09-15T08:26:58.775Z,16.40
2022-09-15T08:29:25.871Z,16.40
2022-09-15T08:31:52.684Z,16.40
2022-09-15T08:34:20.230Z,16.40
2022-09-15T08:36:47.091Z,16.40
2022-09-15T08:39:13.911Z,16.50
2022-09-15T08:41:45.540Z,16.50
2022-09-15T08:44:32.407Z,16.50
2022-09-15T08:47:17.064Z,16.60
2022-09-15T08:50:11.851Z,16.70
2022-09-15T08:53:01.272Z,16.80
2022-09-15T08:55:47.837Z,16.90
2022-09-15T08:58:15.864Z,16.90
2022-09-15T09:00:42.725Z,17.00
2022-09-15T09:03:32.008Z,17.00
2022-09-15T09:06:26.338Z,17.10
2022-09-15T09:09:14.910Z,17.20
2022-09-15T09:11:46.415Z,17.30
2022-09-15T09:14:23.552Z,17.30
2022-09-15T09:17:12.282Z,17.40
2022-09-15T09:20:08.741Z,17.50
2022-09-15T09:22:37.003Z,17.40
2022-09-15T09:25:21.144Z,17.50
2022-09-15T09:27:50.974Z,17.60
2022-09-15T09:30:24.444Z,17.70
2022-09-15T09:33:06.313Z,17.80
2022-09-15T09:35:52.312Z,17.90
2022-09-15T09:38:26.483Z,18.00
2022-09-15T09:40:53.382Z,18.10
2022-09-15T09:43:20.245Z,18.20
2022-09-15T09:45:47.182Z,18.20
2022-09-15T09:48:24.507Z,18.20
2022-09-15T09:50:51.366Z,18.20
2022-09-15T09:53:31.980Z,18.20
2022-09-15T09:56:28.654Z,18.20
2022-09-15T09:58:55.583Z,18.20
2022-09-15T10:01:24.934Z,18.20
2022-09-15T10:04:11.645Z,18.20
2022-09-15T10:06:38.491Z,18.10
2022-09-15T10:09:09.848Z,18.10
2022-09-15T10:11:51.523Z,18.20
2022-09-15T10:14:38.701Z,18.20
2022-09-15T10:17:17.075Z,18.20
2022-09-15T10:19:54.322Z,18.40
2022-09-15T10:22:31.787Z,18.40
2022-09-15T10:25:00.485Z,18.50
2022-09-15T10:27:30.269Z,18.50
2022-09-15T10:29:59.804Z,18.70
2022-09-15T10:32:31.665Z,18.80
2022-09-15T10:35:00.456Z,18.80
2022-09-15T10:37:45.794Z,18.80
2022-09-15T10:40:31.267Z,18.80
2022-09-15T10:43:10.518Z,18.80
2022-09-15T10:45:40.505Z,18.90
2022-09-15T10:48:31.453Z,18.90
2022-09-15T10:51:16.174Z,19.00
2022-09-15T10:53:58.294Z,19.00
2022-09-15T10:56:29.735Z,19.00
2022-09-15T10:59:22.217Z,19.00
2022-09-15T11:01:59.160Z,19.00
2022-09-15T11:04:57.848Z,19.00
2022-09-15T11:07:38.342Z,19.00
2022-09-15T11:10:05.200Z,19.00
2022-09-15T11:13:03.073Z,19.10
2022-09-15T11:16:07.073Z,19.10
2022-09-15T11:18:45.525Z,19.10
2022-09-15T11:21:23.218Z,19.10
2022-09-15T11:23:53.178Z,19.20
2022-09-15T11:26:31.184Z,19.20
2022-09-15T11:29:01.400Z,19.40
2022-09-15T11:31:39.705Z,19.40
2022-09-15T11:34:12.866Z,19.60
2022-09-15T11:37:19.373Z,19.60
2022-09-15T11:39:56.743Z,19.40
2022-09-15T11:42:46.720Z,19.50
2022-09-15T11:45:20.313Z,19.60
2022-09-15T11:47:52.865Z,19.60
2022-09-15T11:50:21.007Z,19.60
2022-09-15T11:53:09.389Z,19.60
2022-09-15T11:55:52.191Z,19.60
2022-09-15T11:58:52.955Z,19.50
2022-09-15T12:01:30.230Z,19.50
2022-09-15T12:04:14.378Z,19.50
2022-09-15T12:06:45.775Z,19.50
2022-09-15T12:09:17.162Z,19.50
2022-09-15T12:11:48.292Z,19.40
2022-09-15T12:14:36.160Z,19.30
2022-09-15T12:17:05.235Z,19.30
2022-09-15T12:19:47.782Z,19.30
2022-09-15T12:22:31.287Z,19.30
2022-09-15T12:25:01.780Z,19.10
2022-09-15T12:27:28.673Z,19.10
2022-09-15T12:29:56.720Z,19.10
2022-09-15T12:32:30.920Z,19.10
2022-09-15T12:35:02.021Z,19.10
2022-09-15T12:37:42.321Z,19.10
2022-09-15T12:40:30.478Z,19.20
2022-09-15T12:42:57.668Z,19.20
2022-09-15T12:45:32.173Z,19.30
2022-09-15T12:48:12.204Z,19.40
2022-09-15T12:50:41.051Z,19.50
2022-09-15T12:53:29.565Z,19.60
2022-09-15T12:56:10.501Z,19.70
2022-09-15T12:58:38.632Z,19.70
2022-09-15T13:01:26.687Z,19.60
2022-09-15T13:04:00.700Z,19.50
2022-09-15T13:06:33.455Z,19.50
2022-09-15T13:09:04.000Z,19.60
2022-09-15T13:11:39.765Z,19.50
2022-09-15T13:14:06.970Z,19.50
2022-09-15T13:16:34.839Z,19.50
2022-09-15T13:19:28.379Z,19.60
2022-09-15T13:22:11.953Z,19.60
2022-09-15T13:24:44.599Z,19.50
2022-09-15T13:27:11.822Z,19.40
2022-09-15T13:29:54.941Z,19.50
2022-09-15T13:32:40.324Z,19.60
2022-09-15T13:35:32.105Z,19.70
2022-09-15T13:38:24.892Z,19.90
2022-09-15T13:41:15.008Z,20.00
2022-09-15T13:43:48.305Z,20.10
2022-09-15T13:46:18.149Z,20.00
2022-09-15T13:48:47.885Z,19.80
2022-09-15T13:51:27.881Z,19.70
2022-09-15T13:53:58.164Z,19.70
2022-09-15T13:56:38.216Z,19.60
2022-09-15T13:59:11.263Z,19.50
2022-09-15T14:01:42.473Z,19.40
2022-09-15T14:04:13.383Z,19.30
2022-09-15T14:06:41.770Z,19.10
2022-09-15T14:09:24.326Z,19.10
2022-09-15T14:11:53.426Z,19.10
2022-09-15T14:14:31.455Z,19.10
2022-09-15T14:16:58.458Z,19.20
2022-09-15T14:19:33.808Z,19.30
2022-09-15T14:22:21.924Z,19.40
2022-09-15T14:24:48.809Z,19.50
2022-09-15T14:27:19.498Z,19.70
2022-09-15T14:29:48.472Z,19.80
2022-09-15T14:32:15.958Z,19.90
2022-09-15T14:34:42.867Z,19.90
2022-09-15T14:37:21.912Z,19.90
2022-09-15T14:39:54.805Z,20.00
2022-09-15T14:42:34.040Z,20.00
2022-09-15T14:48:01.446Z,20.10
2022-09-15T14:50:32.514Z,20.10
2022-09-15T14:53:22.316Z,20.10
2022-09-15T14:56:08.841Z,20.10
2022-09-15T14:58:52.925Z,20.00
2022-09-15T15:01:23.418Z,20.00
2022-09-15T15:03:58.921Z,19.90
2022-09-15T15:06:34.419Z,19.80
2022-09-15T15:09:04.091Z,19.70
2022-09-15T15:11:31.510Z,19.60
2022-09-15T15:13:58.335Z,19.60
2022-09-15T15:16:30.035Z,19.60
2022-09-15T15:18:57.203Z,19.50
2022-09-15T15:21:41.308Z,19.40
2022-09-15T15:24:14.503Z,19.40
2022-09-15T15:26:42.821Z,19.30
2022-09-15T15:29:43.206Z,19.20
2022-09-15T15:32:20.927Z,19.20
2022-09-15T15:34:52.098Z,19.10
2022-09-15T15:37:37.058Z,19.10
2022-09-15T15:40:06.570Z,19.10
2022-09-15T15:42:33.560Z,19.10
2022-09-15T15:45:12.955Z,19.10
2022-09-15T15:47:39.877Z,19.10
2022-09-15T15:50:21.225Z,19.10
2022-09-15T15:52:51.292Z,19.00
2022-09-15T15:55:23.044Z,19.00
2022-09-15T15:57:51.777Z,18.90
2022-09-15T16:00:26.517Z,18.90
2022-09-15T16:02:53.475Z,18.90
2022-09-15T16:05:20.871Z,18.90
2022-09-15T16:07:47.887Z,18.90
2022-09-15T16:10:19.037Z,19.00
2022-09-15T16:12:45.879Z,19.00
2022-09-15T16:15:13.883Z,19.00
2022-09-15T16:17:45.935Z,18.90
2022-09-15T16:20:16.215Z,18.70
2022-09-15T16:22:43.367Z,18.60
2022-09-15T16:25:25.118Z,18.40
2022-09-15T16:27:52.156Z,18.30
2022-09-15T16:30:19.103Z,18.30
2022-09-15T16:32:45.947Z,18.10
2022-09-15T16:35:33.608Z,18.00
2022-09-15T16:38:00.520Z,17.90
2022-09-15T16:40:27.398Z,17.90
2022-09-15T16:42:54.309Z,17.90
2022-09-15T16:45:29.818Z,17.80
2022-09-15T16:47:56.759Z,17.80
2022-09-15T16:50:23.637Z,17.70
2022-09-15T16:52:50.688Z,17.70
2022-09-15T16:55:36.786Z,17.70
2022-09-15T16:58:05.083Z,17.70
2022-09-15T17:00:33.442Z,17.70
2022-09-15T17:03:00.460Z,17.70
2022-09-15T17:05:33.873Z,17.70
2022-09-15T17:08:00.882Z,17.70
2022-09-15T17:10:27.779Z,17.70
2022-09-15T17:12:54.761Z,17.60
2022-09-15T17:15:40.844Z,17.60
2022-09-15T17:18:08.285Z,17.50
2022-09-15T17:20:39.193Z,17.50
2022-09-15T17:23:25.030Z,17.50
2022-09-15T17:25:59.120Z,17.50
2022-09-15T17:28:27.640Z,17.50
2022-09-15T17:30:58.098Z,17.50
2022-09-15T17:33:24.988Z,17.50
2022-09-15T17:35:51.906Z,17.50
2022-09-15T17:38:20.472Z,17.40
2022-09-15T17:40:47.972Z,17.40
2022-09-15T17:43:17.538Z,17.40
2022-09-15T17:45:44.558Z,17.40
2022-09-15T17:48:11.902Z,17.40
2022-09-15T17:50:39.317Z,17.40
2022-09-15T17:53:14.422Z,17.30
2022-09-15T17:55:41.494Z,17.30
2022-09-15T17:58:08.571Z,17.30
2022-09-15T18:00:37.027Z,17.30
2022-09-15T18:03:17.616Z,17.30
2022-09-15T18:05:44.432Z,17.20
2022-09-15T18:08:11.385Z,17.20
2022-09-15T18:10:38.255Z,17.10
2022-09-15T18:13:05.484Z,17.10
2022-09-15T18:15:34.129Z,17.10
2022-09-15T18:18:08.630Z,17.00
2022-09-15T18:20:36.906Z,17.00
2022-09-15T18:23:03.757Z,17.00
2022-09-15T18:25:32.370Z,17.00
2022-09-15T18:27:59.360Z,17.00
2022-09-15T18:30:27.941Z,17.00
2022-09-15T18:32:54.909Z,16.90
2022-09-15T18:35:22.007Z,16.90
2022-09-15T18:37:49.916Z,16.90
2022-09-15T18:40:17.957Z,16.90
2022-09-15T18:42:44.942Z,16.80
2022-09-15T18:45:13.597Z,16.80
2022-09-15T18:47:42.464Z,16.80
2022-09-15T18:50:12.171Z,16.80
2022-09-15T18:52:40.070Z,16.70
2022-09-15T18:55:07.713Z,16.70
2022-09-15T18:57:35.777Z,16.70
2022-09-15T19:00:05.189Z,16.70
2022-09-15T19:02:32.032Z,16.70
2022-09-15T19:04:58.919Z,16.60
2022-09-15T19:07:28.436Z,16.60
2022-09-15T19:09:56.796Z,16.60
2022-09-15T19:12:23.747Z,16.60
2022-09-15T19:14:50.570Z,16.60
2022-09-15T19:17:17.559Z,16.60
2022-09-15T19:19:46.396Z,16.60
2022-09-15T19:22:13.355Z,16.60
2022-09-15T19:24:40.240Z,16.60
2022-09-15T19:27:07.745Z,16.60
2022-09-15T19:29:35.499Z,16.50
2022-09-15T19:32:06.729Z,16.50
2022-09-15T19:34:33.753Z,16.40
2022-09-15T19:37:00.542Z,16.40
2022-09-15T19:39:27.389Z,16.30
2022-09-15T19:41:54.282Z,16.30
2022-09-15T19:44:21.127Z,16.30
2022-09-15T19:46:48.239Z,16.30
2022-09-15T19:49:15.240Z,16.30
2022-09-15T19:51:42.310Z,16.30
2022-09-15T19:54:09.249Z,16.30
2022-09-15T19:56:36.222Z,16.30
2022-09-15T19:59:03.620Z,16.20
2022-09-15T20:01:30.970Z,16.30
2022-09-15T20:06:42.699Z,16.20
2022-09-15T20:09:09.728Z,16.10
2022-09-15T20:11:36.935Z,16.20
2022-09-15T20:14:03.898Z,16.20
2022-09-15T20:16:30.733Z,16.20
2022-09-15T20:18:57.698Z,16.20
2022-09-15T20:24:16.527Z,16.20
2022-09-15T20:26:43.379Z,16.10
2022-09-15T20:29:10.240Z,16.20
2022-09-15T20:31:37.088Z,16.10
2022-09-15T20:34:03.918Z,16.10
2022-09-15T20:36:36.681Z,16.10
2022-09-15T20:39:05.262Z,16.10
2022-09-15T20:41:32.180Z,16.10
2022-09-15T20:43:59.269Z,16.00
2022-09-15T20:46:26.303Z,16.00
2022-09-15T20:48:53.416Z,16.00
2022-09-15T20:51:24.551Z,15.90
2022-09-15T20:53:55.959Z,16.00
2022-09-15T20:56:25.568Z,16.00
2022-09-15T20:58:57.065Z,16.00
2022-09-15T21:01:34.542Z,15.90
2022-09-15T21:04:01.556Z,15.90
2022-09-15T21:06:28.563Z,15.90
2022-09-15T21:08:56.692Z,16.00
2022-09-15T21:11:24.126Z,15.90
2022-09-15T21:13:50.972Z,15.90
2022-09-15T21:16:20.626Z,15.90
2022-09-15T21:18:47.911Z,15.90
2022-09-15T21:21:17.019Z,15.90
2022-09-15T21:23:54.755Z,15.90
2022-09-15T21:26:23.454Z,15.80
2022-09-15T21:28:50.670Z,15.80
2022-09-15T21:31:19.133Z,15.80
2022-09-15T21:33:46.567Z,15.70
2022-09-15T21:36:14.771Z,15.70
2022-09-15T21:38:44.014Z,15.60
2022-09-15T21:41:11.842Z,15.60
2022-09-15T21:43:40.467Z,15.60
2022-09-15T21:46:09.614Z,15.60
2022-09-15T21:48:36.627Z,15.50
2022-09-15T21:51:04.058Z,15.50
2022-09-15T21:53:31.140Z,15.50
2022-09-15T21:56:01.461Z,15.50
2022-09-15T21:58:38.975Z,15.40
2022-09-15T22:01:23.788Z,15.40
2022-09-15T22:03:55.566Z,15.30
2022-09-15T22:06:27.700Z,15.30
2022-09-15T22:08:55.301Z,15.20
2022-09-15T22:11:22.755Z,15.20
2022-09-15T22:13:49.596Z,15.10
2022-09-15T22:16:18.444Z,15.00
2022-09-15T22:18:45.766Z,14.90
2022-09-15T22:21:13.505Z,14.80
2022-09-15T22:23:40.522Z,14.70
2022-09-15T22:26:11.385Z,14.70
2022-09-15T22:28:38.367Z,14.60
2022-09-15T22:31:06.771Z,14.50
2022-09-15T22:33:33.613Z,14.50
2022-09-15T22:36:00.580Z,14.50
2022-09-15T22:38:28.881Z,14.50
2022-09-15T22:40:55.869Z,14.40
2022-09-15T22:43:23.097Z,14.40
2022-09-15T22:45:49.959Z,14.40
2022-09-15T22:48:16.883Z,14.40
2022-09-15T22:50:45.403Z,14.40
2022-09-15T22:53:13.036Z,14.40
2022-09-15T22:55:40.253Z,14.40
2022-09-15T22:58:07.500Z,14.30
2022-09-15T23:00:34.904Z,14.30
2022-09-15T23:03:01.738Z,14.30
2022-09-15T23:05:28.512Z,14.20
2022-09-15T23:07:55.393Z,14.20
2022-09-15T23:10:22.250Z,14.20
2022-09-15T23:12:49.054Z,14.10
2022-09-15T23:15:16.385Z,14.10
2022-09-15T23:17:43.239Z,14.10
2022-09-15T23:20:11.296Z,14.10
2022-09-15T23:22:38.184Z,14.10
2022-09-15T23:25:05.437Z,14.10
2022-09-15T23:27:32.274Z,14.10
2022-09-15T23:29:59.096Z,14.10
2022-09-15T23:32:25.998Z,14.10
2022-09-15T23:34:53.482Z,14.10
2022-09-15T23:37:20.321Z,14.10
2022-09-15T23:39:47.393Z,14.20
2022-09-15T23:42:18.978Z,14.20
2022-09-15T23:44:46.009Z,14.20
2022-09-15T23:47:12.843Z,14.30
2022-09-15T23:49:39.831Z,14.30
2022-09-15T23:52:06.658Z,14.30
2022-09-15T23:54:33.487Z,14.30
2022-09-15T23:57:00.399Z,14.30
2022-09-15T23:59:27.206Z,14.30
